Time;durP1;ratioP1;P1;durP2;ratioP2;P2;SDS_P1;SDS_P2;PMS_P1;PMS_P2;Temp;Humidity;BMP_temperature;BMP_pressure;BME280_temperature;BME280_humidity;BME280_pressure;Samples;Min_cycle;Max_cycle;Signal;HPM_P1;HPM_P2
2022/06/04 00:00:47;;;;;;;8.80;4.35;;;17.40;82.00;;;;;;5015246;28;20050;-76
2022/06/04 00:03:13;;;;;;;4.82;3.92;;;17.40;82.10;;;;;;5014975;28;20108;-76
2022/06/04 00:05:42;;;;;;;5.82;4.05;;;17.40;83.00;;;;;;5015011;28;20073;-76
2022/06/04 00:08:09;;;;;;;4.93;3.83;;;17.40;82.10;;;;;;5015450;28;20113;-77
2022/06/04 00:16:08;;;;;;;3.83;2.90;;;17.40;82.00;;;;;;5016300;28;20092;-74
2022/06/04 00:18:34;;;;;;;3.90;3.50;;;17.40;81.80;;;;;;5014791;28;20068;-74
2022/06/04 00:21:00;;;;;;;6.30;3.10;;;17.40;81.60;;;;;;5014770;28;20053;-74
2022/06/04 00:23:26;;;;;;;5.60;3.10;;;17.40;81.40;;;;;;5015004;28;20371;-74
2022/06/04 00:25:55;;;;;;;3.92;3.20;;;17.30;81.40;;;;;;5014843;28;20550;-74
2022/06/04 00:28:23;;;;;;;4.20;2.85;;;17.40;81.40;;;;;;5014460;28;20037;-74
2022/06/04 00:30:50;;;;;;;4.40;3.38;;;17.30;81.30;;;;;;5014358;28;20121;-74
2022/06/04 00:33:16;;;;;;;4.03;3.10;;;17.30;81.50;;;;;;5014711;28;20030;-74
2022/06/04 00:35:43;;;;;;;4.85;3.83;;;17.40;81.50;;;;;;5014372;28;20076;-74
2022/06/04 00:38:09;;;;;;;4.25;2.83;;;17.30;81.40;;;;;;5013466;28;20494;-74
2022/06/04 00:40:49;;;;;;;4.10;3.15;;;17.30;81.40;;;;;;5014341;28;20053;-73
2022/06/04 00:43:16;;;;;;;5.55;3.65;;;17.30;81.40;;;;;;5014552;28;20030;-75
2022/06/04 00:46:20;;;;;;;5.55;3.58;;;17.30;81.20;;;;;;5014521;28;20022;-75
2022/06/04 00:48:46;;;;;;;5.65;3.15;;;17.20;81.20;;;;;;5010712;28;20042;-75
2022/06/04 00:51:11;;;;;;;6.35;2.97;;;17.20;81.30;;;;;;5014137;28;20072;-74
2022/06/04 00:53:37;;;;;;;3.30;3.00;;;17.20;81.40;;;;;;5013970;28;20054;-74
2022/06/04 00:56:28;;;;;;;4.47;2.70;;;17.20;81.40;;;;;;5014316;28;20022;-74
2022/06/04 00:59:12;;;;;;;4.28;3.10;;;17.20;81.40;;;;;;5016290;28;20061;-74
2022/06/04 01:01:58;;;;;;;2.88;2.53;;;17.20;81.30;;;;;;5014087;28;20022;-74
2022/06/04 01:04:53;;;;;;;12.30;3.58;;;17.20;81.20;;;;;;5013955;28;20026;-74
2022/06/04 01:07:22;;;;;;;4.15;3.30;;;17.10;81.40;;;;;;5013989;28;20026;-74
2022/06/04 01:09:53;;;;;;;5.50;3.63;;;17.10;81.80;;;;;;5013808;28;20029;-74
2022/06/04 01:12:45;;;;;;;4.43;3.45;;;17.00;81.80;;;;;;5013712;28;20483;-73
2022/06/04 01:15:29;;;;;;;4.90;3.05;;;17.10;81.80;;;;;;5013732;28;20123;-73
2022/06/04 01:18:20;;;;;;;4.22;2.80;;;17.10;81.90;;;;;;5013614;28;20041;-74
2022/06/04 01:20:52;;;;;;;5.30;3.15;;;17.10;81.90;;;;;;5013505;28;20111;-76
2022/06/04 01:23:26;;;;;;;8.05;3.47;;;17.10;81.70;;;;;;5013815;28;20025;-76
2022/06/04 01:26:29;;;;;;;3.85;2.88;;;17.00;81.60;;;;;;5013752;28;20044;-76
2022/06/04 01:29:05;;;;;;;8.15;3.78;;;17.00;81.80;;;;;;5013546;28;20022;-75
2022/06/04 01:31:43;;;;;;;;;;;17.00;81.60;;;;;;5014371;28;20033;-76
2022/06/04 01:34:12;;;;;;;6.78;3.55;;;17.00;81.60;;;;;;5013766;28;19910;-74
2022/06/04 01:36:59;;;;;;;3.28;2.88;;;17.00;81.70;;;;;;5013708;28;20041;-74
2022/06/04 01:41:03;;;;;;;3.53;3.13;;;17.00;81.80;;;;;;5013218;28;20049;-73
2022/06/04 01:42:16;;;;;;;8.18;3.33;;;17.00;81.80;;;;;;5019522;28;20022;-74
2022/06/04 01:44:43;;;;;;;6.32;3.75;;;17.00;81.80;;;;;;5018340;28;20029;-74
2022/06/04 01:47:08;;;;;;;7.38;4.05;;;17.00;81.80;;;;;;5013359;28;20045;-74
2022/06/04 01:49:41;;;;;;;6.60;4.03;;;16.90;82.00;;;;;;5012874;28;20029;-74
2022/06/04 01:52:16;;;;;;;4.55;3.60;;;16.90;82.00;;;;;;5013347;28;20018;-74
2022/06/04 01:55:11;;;;;;;5.85;3.58;;;16.80;82.00;;;;;;5013185;28;20064;-74
2022/06/04 01:57:58;;;;;;;5.35;3.30;;;16.80;82.20;;;;;;5010013;28;20112;-74
2022/06/04 02:00:38;;;;;;;5.65;3.30;;;16.80;82.30;;;;;;5000179;28;20476;-73
2022/06/04 02:03:11;;;;;;;5.50;3.22;;;16.90;82.40;;;;;;5013179;28;20033;-74
2022/06/04 02:05:59;;;;;;;6.68;4.15;;;16.80;82.40;;;;;;5013128;28;20026;-74
2022/06/04 02:08:33;;;;;;;5.88;4.20;;;16.70;83.10;;;;;;5012730;28;20105;-74
2022/06/04 02:11:07;;;;;;;4.63;3.55;;;16.70;83.20;;;;;;5013018;28;20083;-74
2022/06/04 02:13:34;;;;;;;6.32;3.95;;;16.70;83.20;;;;;;5012928;28;20088;-74
2022/06/04 02:16:20;;;;;;;5.97;4.20;;;16.70;83.10;;;;;;5012651;28;20503;-74
2022/06/04 02:18:46;;;;;;;;;;;16.80;83.00;;;;;;5012481;28;20044;-73
2022/06/04 02:21:12;;;;;;;6.25;4.13;;;16.80;82.80;;;;;;5012817;28;19905;-74
2022/06/04 02:23:38;;;;;;;5.38;4.45;;;16.80;82.60;;;;;;5012758;28;20483;-74
2022/06/04 02:26:04;;;;;;;6.85;4.82;;;16.80;82.50;;;;;;5012800;28;20117;-74
2022/06/04 02:28:29;;;;;;;5.00;3.90;;;16.80;82.50;;;;;;5012555;28;20053;-73
2022/06/04 02:31:17;;;;;;;5.97;3.30;;;16.80;82.40;;;;;;5012322;28;20025;-73
2022/06/04 02:34:09;;;;;;;7.65;3.72;;;16.80;82.50;;;;;;5012225;28;20076;-73
2022/06/04 02:36:42;;;;;;;4.15;3.35;;;16.80;82.60;;;;;;5012338;28;20402;-74
2022/06/04 02:39:23;;;;;;;4.05;2.85;;;16.80;82.70;;;;;;5012117;28;20509;-74
2022/06/04 02:42:25;;;;;;;5.38;2.90;;;16.70;82.60;;;;;;5012628;28;20061;-74
2022/06/04 02:44:53;;;;;;;6.93;3.00;;;16.70;82.60;;;;;;4971627;28;20034;-73
2022/06/04 02:47:26;;;;;;;7.70;3.00;;;16.70;82.80;;;;;;5012237;28;20112;-74
2022/06/04 02:50:01;;;;;;;4.75;2.95;;;16.70;82.70;;;;;;5012127;28;20076;-74
2022/06/04 02:52:30;;;;;;;4.35;2.78;;;16.80;82.50;;;;;;5011970;28;20083;-74
2022/06/04 02:54:58;;;;;;;6.63;2.97;;;16.70;82.20;;;;;;5012180;28;20129;-75
2022/06/04 02:57:25;;;;;;;6.32;2.80;;;16.70;82.30;;;;;;5012037;28;20036;-76
2022/06/04 02:59:52;;;;;;;3.95;2.63;;;16.70;82.30;;;;;;5012119;28;20037;-75
2022/06/04 03:02:20;;;;;;;5.32;2.53;;;16.70;82.20;;;;;;5011427;28;20022;-76
2022/06/04 03:04:50;;;;;;;7.97;2.38;;;16.80;82.00;;;;;;5011925;28;20100;-74
2022/06/04 03:07:18;;;;;;;4.82;2.67;;;16.70;82.20;;;;;;5012312;28;20056;-74
2022/06/04 03:09:45;;;;;;;7.32;2.97;;;16.70;82.40;;;;;;5012028;28;20018;-74
2022/06/04 03:12:14;;;;;;;6.07;2.67;;;16.70;82.60;;;;;;5012008;28;20034;-74
2022/06/04 03:14:40;;;;;;;4.97;2.53;;;16.70;82.70;;;;;;5012113;28;20044;-74
2022/06/04 03:17:10;;;;;;;4.63;2.83;;;16.60;82.80;;;;;;5012015;28;20034;-74
2022/06/04 03:19:36;;;;;;;5.55;3.40;;;16.40;83.70;;;;;;5012106;28;20054;-74
2022/06/04 03:22:02;;;;;;;5.70;3.25;;;16.40;83.80;;;;;;5011965;28;20123;-74
2022/06/04 03:24:27;;;;;;;5.88;3.75;;;16.40;84.00;;;;;;5011978;28;20017;-74
2022/06/04 03:26:53;;;;;;;5.50;3.50;;;16.40;84.20;;;;;;5011815;28;20471;-75
2022/06/04 03:29:19;;;;;;;5.10;3.20;;;16.50;84.50;;;;;;5011743;28;20116;-74
2022/06/04 03:31:45;;;;;;;5.50;2.88;;;16.40;84.40;;;;;;5011691;28;20057;-74
2022/06/04 03:34:11;;;;;;;3.65;2.78;;;16.50;84.80;;;;;;5011721;28;20032;-75
2022/06/04 03:36:38;;;;;;;5.40;3.05;;;16.50;84.20;;;;;;5011789;28;20037;-74
2022/06/04 03:39:06;;;;;;;5.53;3.00;;;16.60;84.00;;;;;;5011655;28;20057;-75
2022/06/04 03:41:32;;;;;;;6.47;2.70;;;16.60;83.80;;;;;;5011632;28;20033;-74
2022/06/04 03:43:57;;;;;;;3.13;2.40;;;16.70;83.20;;;;;;5011583;28;20018;-75
2022/06/04 03:46:25;;;;;;;5.18;2.25;;;16.80;83.00;;;;;;5011482;28;20513;-74
2022/06/04 03:48:56;;;;;;;2.97;2.65;;;16.90;82.70;;;;;;5011789;28;20366;-74
2022/06/04 03:51:23;;;;;;;3.92;2.28;;;17.00;82.30;;;;;;5011691;28;20030;-74
2022/06/04 03:53:49;;;;;;;4.90;2.53;;;17.10;81.70;;;;;;5011368;28;20022;-74
2022/06/04 03:56:14;;;;;;;3.63;2.30;;;17.20;81.60;;;;;;5011381;28;20037;-74
2022/06/04 03:58:40;;;;;;;5.45;2.85;;;17.20;81.60;;;;;;5011346;28;20474;-74
2022/06/04 04:01:20;;;;;;;5.45;2.13;;;17.20;81.20;;;;;;5011626;28;20474;-74
2022/06/04 04:03:46;;;;;;;5.60;2.45;;;17.20;80.80;;;;;;5011814;28;20397;-74
2022/06/04 04:06:19;;;;;;;2.50;1.45;;;17.30;79.80;;;;;;5011400;28;20025;-74
2022/06/04 04:08:45;;;;;;;2.60;1.40;;;17.30;78.70;;;;;;5011454;28;20029;-76
2022/06/04 04:11:15;;;;;;;3.63;1.33;;;17.40;77.10;;;;;;5011302;28;20034;-73
2022/06/04 04:13:42;;;;;;;5.55;1.60;;;17.50;75.10;;;;;;5013258;28;20025;-74
2022/06/04 04:16:09;;;;;;;5.10;1.10;;;17.60;75.20;;;;;;5014892;28;20026;-73
2022/06/04 04:18:35;;;;;;;1.77;1.30;;;17.70;75.00;;;;;;5014719;28;20479;-74
2022/06/04 04:21:16;;;;;;;2.97;1.23;;;17.80;74.40;;;;;;5015018;28;20116;-76
2022/06/04 04:23:42;;;;;;;3.15;1.38;;;17.80;74.50;;;;;;5014873;28;20061;-75
2022/06/04 04:26:09;;;;;;;3.40;1.65;;;17.80;74.40;;;;;;5014469;28;20022;-74
2022/06/04 04:28:36;;;;;;;3.08;1.85;;;17.90;74.10;;;;;;5014472;28;20026;-74
2022/06/04 04:31:02;;;;;;;3.67;1.58;;;17.90;74.50;;;;;;5014856;28;20030;-75
2022/06/04 04:33:28;;;;;;;3.60;1.33;;;17.90;75.10;;;;;;5014617;28;20026;-75
2022/06/04 04:35:54;;;;;;;4.05;1.35;;;18.00;75.60;;;;;;5014695;28;20497;-75
2022/06/04 04:38:21;;;;;;;2.80;1.73;;;18.00;75.80;;;;;;5014533;28;20054;-75
2022/06/04 04:40:47;;;;;;;4.10;1.67;;;17.70;77.40;;;;;;5015434;28;20029;-74
2022/06/04 04:43:13;;;;;;;4.70;2.85;;;17.70;77.70;;;;;;5014672;28;20076;-74
2022/06/04 04:45:39;;;;;;;6.90;2.03;;;17.70;78.10;;;;;;5014670;28;20033;-74
2022/06/04 04:48:05;;;;;;;2.40;1.90;;;17.80;77.60;;;;;;5014204;28;20021;-76
2022/06/04 04:50:34;;;;;;;4.82;1.73;;;17.80;77.40;;;;;;5013794;28;20048;-75
2022/06/04 04:53:04;;;;;;;4.10;2.25;;;17.80;77.50;;;;;;5013846;28;20029;-75
2022/06/04 04:55:31;;;;;;;3.28;1.75;;;17.90;77.40;;;;;;5014413;28;20026;-77
2022/06/04 04:57:56;;;;;;;3.03;1.60;;;17.90;77.30;;;;;;5014074;28;20077;-75
2022/06/04 05:00:23;;;;;;;2.35;2.00;;;17.90;78.40;;;;;;5013921;28;20033;-74
2022/06/04 05:02:49;;;;;;;3.83;1.92;;;18.00;78.70;;;;;;5014384;28;20509;-75
2022/06/04 05:05:14;;;;;;;3.53;1.90;;;18.00;78.20;;;;;;4997722;28;20065;-74
2022/06/04 05:07:41;;;;;;;4.65;1.70;;;18.10;78.30;;;;;;5013859;28;20026;-75
2022/06/04 05:10:08;;;;;;;2.53;2.00;;;18.10;78.30;;;;;;5014133;28;20470;-75
2022/06/04 05:12:34;;;;;;;4.75;2.22;;;18.10;78.50;;;;;;5013961;28;20030;-75
2022/06/04 05:14:59;;;;;;;7.50;3.08;;;18.00;78.60;;;;;;5013803;28;20050;-75
2022/06/04 05:17:25;;;;;;;8.55;2.95;;;18.10;76.80;;;;;;5013575;28;20505;-76
2022/06/04 05:19:50;;;;;;;7.57;3.03;;;18.40;76.00;;;;;;5013685;28;20034;-74
2022/06/04 05:22:16;;;;;;;8.00;3.42;;;18.40;75.50;;;;;;5013397;28;20025;-76
2022/06/04 05:24:43;;;;;;;2.85;2.50;;;18.40;75.80;;;;;;5013048;28;20053;-75
2022/06/04 05:27:09;;;;;;;5.35;2.45;;;18.40;74.90;;;;;;5013378;28;20029;-75
2022/06/04 05:29:37;;;;;;;3.42;2.20;;;18.40;75.10;;;;;;5013509;28;20029;-76
2022/06/04 05:32:03;;;;;;;4.93;2.80;;;18.40;75.20;;;;;;5013375;28;20041;-74
2022/06/04 05:34:29;;;;;;;5.00;3.03;;;18.40;75.60;;;;;;5013423;28;20049;-75
2022/06/04 05:36:55;;;;;;;2.97;2.13;;;18.40;76.10;;;;;;5012990;28;20501;-74
2022/06/04 05:39:22;;;;;;;8.50;2.38;;;18.40;75.60;;;;;;5013198;28;20082;-74
2022/06/04 05:41:48;;;;;;;7.32;2.38;;;18.40;75.50;;;;;;5013167;28;20033;-74
2022/06/04 05:44:14;;;;;;;5.05;2.60;;;18.30;75.90;;;;;;5013162;28;20022;-74
2022/06/04 05:46:44;;;;;;;2.55;1.95;;;18.30;76.10;;;;;;5014522;28;20026;-75
2022/06/04 05:49:11;;;;;;;3.95;1.80;;;18.40;76.80;;;;;;5013161;28;20021;-74
2022/06/04 05:51:38;;;;;;;3.08;2.35;;;18.40;76.00;;;;;;5013185;28;20025;-75
2022/06/04 05:54:04;;;;;;;3.65;1.73;;;18.30;75.70;;;;;;5013156;28;20026;-75
2022/06/04 05:56:33;;;;;;;3.22;1.60;;;18.40;73.70;;;;;;5012924;28;20038;-77
2022/06/04 05:59:00;;;;;;;2.75;1.50;;;18.40;73.80;;;;;;5012853;28;20057;-77
2022/06/04 06:01:28;;;;;;;2.65;1.88;;;18.40;74.00;;;;;;5012651;28;20076;-77
2022/06/04 06:03:55;;;;;;;3.58;1.80;;;18.40;73.20;;;;;;5012693;28;20499;-76
2022/06/04 06:06:23;;;;;;;2.85;1.65;;;18.40;74.00;;;;;;5012991;28;20030;-76
2022/06/04 06:08:50;;;;;;;3.10;1.88;;;18.40;74.70;;;;;;5012636;28;20124;-76
2022/06/04 06:11:17;;;;;;;2.88;2.13;;;18.40;75.80;;;;;;5012736;28;20030;-76
2022/06/04 06:13:44;;;;;;;4.40;2.28;;;18.40;76.80;;;;;;5012556;28;20549;-78
2022/06/04 06:16:31;;;;;;;2.50;1.73;;;18.40;77.60;;;;;;5012364;28;20025;-74
2022/06/04 06:18:58;;;;;;;2.78;1.85;;;18.40;77.60;;;;;;5012781;28;20022;-74
2022/06/04 06:21:27;;;;;;;2.30;1.70;;;18.40;77.60;;;;;;5012624;28;20040;-74
2022/06/04 06:23:54;;;;;;;2.53;1.52;;;18.40;77.60;;;;;;5012641;28;20022;-74
2022/06/04 06:26:23;;;;;;;3.85;1.70;;;18.40;77.50;;;;;;5012828;28;20030;-76
2022/06/04 06:28:49;;;;;;;2.75;1.83;;;18.20;78.00;;;;;;5013434;28;20049;-75
2022/06/04 06:31:17;;;;;;;2.75;1.75;;;18.10;78.60;;;;;;5015139;28;20026;-74
2022/06/04 06:33:43;;;;;;;1.58;1.40;;;18.20;79.00;;;;;;5012416;28;20080;-75
2022/06/04 06:36:12;;;;;;;2.53;1.70;;;18.20;77.30;;;;;;5011870;28;20022;-74
2022/06/04 06:38:38;;;;;;;3.10;1.52;;;18.30;77.00;;;;;;5012349;28;20046;-74
2022/06/04 06:41:05;;;;;;;1.63;1.40;;;18.40;75.70;;;;;;5012154;28;20034;-75
2022/06/04 06:46:09;;;;;;;3.65;1.25;;;18.90;75.80;;;;;;5013449;28;20022;-75
2022/06/04 06:48:37;;;;;;;2.65;0.95;;;19.00;73.40;;;;;;5013287;28;20029;-75
2022/06/04 06:51:15;;;;;;;1.77;1.20;;;19.10;72.90;;;;;;5011885;28;20018;-75
2022/06/04 06:53:41;;;;;;;2.40;1.20;;;19.30;72.40;;;;;;5011780;28;20037;-76
2022/06/04 06:56:16;;;;;;;1.83;1.20;;;19.30;71.70;;;;;;5011825;28;20022;-77
2022/06/04 06:58:42;;;;;;;3.42;1.23;;;19.40;71.80;;;;;;5012011;28;20026;-78
2022/06/04 07:01:09;;;;;;;2.25;1.38;;;19.30;74.00;;;;;;5011788;28;20109;-75
2022/06/04 07:03:35;;;;;;;6.18;0.88;;;19.30;73.20;;;;;;5011894;28;20034;-75
2022/06/04 07:06:04;;;;;;;4.05;1.10;;;19.20;72.40;;;;;;5011860;28;20084;-76
2022/06/04 07:08:30;;;;;;;3.17;1.20;;;19.20;72.70;;;;;;5012942;28;20053;-73
2022/06/04 07:10:55;;;;;;;3.65;2.10;;;19.10;74.70;;;;;;5012086;28;20076;-77
2022/06/04 07:13:21;;;;;;;4.07;2.20;;;19.20;76.50;;;;;;5011925;28;20034;-76
2022/06/04 07:15:47;;;;;;;2.42;2.22;;;19.20;78.10;;;;;;5011967;28;20536;-76
2022/06/04 07:18:14;;;;;;;3.67;2.30;;;19.40;78.10;;;;;;5012763;28;20041;-76
2022/06/04 07:20:42;;;;;;;15.48;2.80;;;19.60;77.70;;;;;;5012897;28;20018;-74
2022/06/04 07:23:11;;;;;;;8.05;2.50;;;19.70;76.80;;;;;;5011846;28;20120;-74
2022/06/04 07:25:41;;;;;;;4.30;2.78;;;19.90;76.20;;;;;;5011929;28;20160;-74
2022/06/04 07:28:08;;;;;;;11.02;2.97;;;20.10;75.20;;;;;;5011783;28;20022;-74
2022/06/04 07:30:33;;;;;;;6.18;2.75;;;20.20;75.20;;;;;;5011530;28;20466;-76
2022/06/04 07:32:59;;;;;;;4.53;2.08;;;20.30;75.10;;;;;;5011244;28;20026;-73
2022/06/04 07:35:25;;;;;;;4.32;2.30;;;20.30;74.90;;;;;;5011744;28;20113;-73
2022/06/04 07:37:50;;;;;;;2.78;2.42;;;20.30;74.50;;;;;;5011260;28;20046;-73
2022/06/04 07:40:16;;;;;;;4.78;2.50;;;20.20;75.10;;;;;;5011359;28;20489;-73
2022/06/04 07:42:42;;;;;;;5.00;2.33;;;20.30;75.20;;;;;;5011748;28;20486;-73
2022/06/04 07:45:08;;;;;;;4.80;2.20;;;20.30;75.00;;;;;;5011339;28;20467;-74
2022/06/04 07:47:34;;;;;;;5.45;2.72;;;20.40;74.00;;;;;;5010843;28;20601;-73
2022/06/04 07:50:00;;;;;;;5.45;2.38;;;20.60;72.90;;;;;;5014881;28;20470;-74
2022/06/04 07:52:26;;;;;;;3.35;2.28;;;20.70;72.70;;;;;;5015084;28;20022;-73
2022/06/04 07:54:52;;;;;;;4.70;3.03;;;20.90;72.30;;;;;;5014883;28;20084;-74
2022/06/04 07:57:17;;;;;;;3.80;3.13;;;21.00;71.80;;;;;;5014730;28;20487;-77
2022/06/04 07:59:43;;;;;;;4.85;3.28;;;21.00;71.50;;;;;;5015242;28;20106;-75
2022/06/04 08:02:12;;;;;;;6.72;3.92;;;20.90;72.40;;;;;;5014924;28;20430;-74
2022/06/04 08:04:39;;;;;;;5.88;4.07;;;20.90;73.10;;;;;;5014709;28;20060;-73
2022/06/04 08:07:05;;;;;;;8.23;4.03;;;20.80;73.70;;;;;;5015084;28;20057;-73
2022/06/04 08:09:33;;;;;;;6.13;3.13;;;21.00;73.30;;;;;;5015790;28;20080;-73
2022/06/04 08:12:00;;;;;;;5.47;3.58;;;21.10;73.10;;;;;;5014642;28;20018;-74
2022/06/04 08:14:26;;;;;;;4.53;3.20;;;21.30;71.90;;;;;;5014673;28;20044;-76
2022/06/04 08:16:58;;;;;;;4.35;3.22;;;21.60;71.70;;;;;;5014475;28;20037;-75
2022/06/04 08:19:26;;;;;;;4.65;3.22;;;21.80;70.60;;;;;;5014828;28;20379;-77
2022/06/04 08:21:52;;;;;;;5.10;3.50;;;22.00;69.30;;;;;;5014743;28;20486;-73
2022/06/04 08:24:19;;;;;;;4.20;3.25;;;22.10;68.50;;;;;;5014651;28;20076;-74
2022/06/04 08:26:47;;;;;;;6.00;2.72;;;22.20;68.20;;;;;;5014457;28;20026;-74
2022/06/04 08:29:14;;;;;;;5.18;3.08;;;22.20;68.00;;;;;;5011813;28;20469;-79
2022/06/04 08:31:40;;;;;;;5.13;3.47;;;22.30;67.60;;;;;;4995845;28;20033;-78
2022/06/04 08:34:06;;;;;;;4.85;2.97;;;22.20;66.70;;;;;;5014352;28;20026;-75
2022/06/04 08:36:32;;;;;;;4.00;3.33;;;22.30;66.90;;;;;;5014140;28;20140;-78
2022/06/04 08:38:58;;;;;;;6.15;3.90;;;22.30;67.00;;;;;;5014004;28;20133;-75
2022/06/04 08:41:36;;;;;;;6.00;3.40;;;22.00;68.80;;;;;;5013210;28;20061;-75
2022/06/04 08:44:15;;;;;;;6.38;3.05;;;21.90;69.70;;;;;;5013792;28;20120;-75
2022/06/04 08:47:16;;;;;;;5.50;3.92;;;22.10;69.30;;;;;;5014274;28;20033;-73
2022/06/04 08:49:55;;;;;;;5.70;3.78;;;22.50;68.40;;;;;;4938703;29;20122;-79
2022/06/04 08:52:38;;;;;;;7.82;4.50;;;22.50;68.40;;;;;;5004990;28;20111;-73
2022/06/04 08:58:21;;;;;;;4.72;3.05;;;22.80;66.80;;;;;;5014696;28;20124;-74
2022/06/04 09:01:23;;;;;;;4.07;3.42;;;23.20;66.70;;;;;;5012609;28;20052;-78
2022/06/04 09:04:27;;;;;;;9.98;3.53;;;23.50;65.40;;;;;;4948253;28;20030;-73
2022/06/04 09:07:01;;;;;;;6.57;3.47;;;23.40;64.40;;;;;;5008803;28;20467;-73
2022/06/04 09:09:31;;;;;;;3.85;2.67;;;23.40;63.40;;;;;;5013801;28;20514;-76
2022/06/04 09:12:03;;;;;;;3.92;3.00;;;23.20;63.50;;;;;;5013652;28;20359;-76
2022/06/04 09:14:43;;;;;;;5.68;3.15;;;23.10;63.80;;;;;;5013839;28;20076;-73
2022/06/04 09:17:21;;;;;;;6.15;2.88;;;23.30;64.40;;;;;;5013842;28;20076;-73
2022/06/04 09:19:51;;;;;;;4.22;2.67;;;23.50;63.90;;;;;;5013753;28;20454;-74
2022/06/04 09:22:24;;;;;;;4.85;2.83;;;23.70;63.10;;;;;;5014368;28;20475;-74
2022/06/04 09:24:50;;;;;;;7.45;3.10;;;23.70;62.60;;;;;;5013433;28;20109;-75
2022/06/04 09:27:53;;;;;;;3.58;2.50;;;23.70;61.50;;;;;;5013575;28;20117;-75
2022/06/04 09:30:30;;;;;;;5.22;2.78;;;23.80;61.70;;;;;;5013278;28;20049;-75
2022/06/04 09:33:13;;;;;;;6.07;2.28;;;23.80;61.10;;;;;;5013262;28;20076;-74
2022/06/04 09:35:41;;;;;;;2.85;2.30;;;23.70;61.30;;;;;;5013151;28;20038;-74
2022/06/04 09:38:23;;;;;;;5.65;2.22;;;23.70;60.00;;;;;;5013051;28;20100;-75
2022/06/04 09:40:58;;;;;;;2.33;1.45;;;23.70;57.20;;;;;;5013059;28;20022;-78
2022/06/04 09:43:25;;;;;;;;;;;23.70;56.30;;;;;;5013461;28;20561;-78
2022/06/04 09:45:53;;;;;;;3.85;1.60;;;23.70;56.90;;;;;;5013097;28;19956;-74
2022/06/04 09:48:24;;;;;;;5.40;1.95;;;23.60;56.30;;;;;;5012665;28;20599;-74
2022/06/04 09:51:14;;;;;;;6.82;2.17;;;23.70;57.80;;;;;;5012360;28;20471;-73
2022/06/04 09:53:46;;;;;;;2.55;1.73;;;23.70;58.00;;;;;;5012567;28;20217;-75
2022/06/04 09:56:16;;;;;;;1.90;1.60;;;23.60;59.00;;;;;;5012005;28;20061;-73
2022/06/04 09:58:45;;;;;;;2.00;1.67;;;23.80;58.60;;;;;;5012297;28;20030;-73
2022/06/04 10:01:17;;;;;;;2.92;1.70;;;24.00;59.20;;;;;;5012268;28;20022;-75
2022/06/04 10:03:45;;;;;;;1.52;1.10;;;24.20;58.00;;;;;;5012612;28;20022;-75
2022/06/04 10:06:14;;;;;;;3.33;1.30;;;24.30;54.50;;;;;;5012524;28;20502;-73
2022/06/04 10:11:36;;;;;;;5.07;1.13;;;24.30;54.20;;;;;;5013610;28;20168;-75
2022/06/04 10:14:03;;;;;;;1.38;0.80;;;24.10;54.40;;;;;;5012524;28;20036;-73
2022/06/04 10:16:34;;;;;;;1.08;0.68;;;24.00;49.90;;;;;;5013577;28;20033;-74
2022/06/04 10:19:03;;;;;;;2.28;0.75;;;24.20;51.00;;;;;;5012337;28;20574;-73
2022/06/04 10:21:37;;;;;;;2.17;0.90;;;24.40;49.00;;;;;;5013037;28;20028;-75
2022/06/04 10:24:22;;;;;;;1.15;0.70;;;24.50;49.70;;;;;;5015270;28;20125;-75
2022/06/04 10:27:02;;;;;;;7.38;1.23;;;24.50;47.90;;;;;;5014398;28;20073;-77
2022/06/04 10:29:36;;;;;;;0.95;0.80;;;24.50;48.50;;;;;;5012927;28;20026;-77
2022/06/04 10:32:23;;;;;;;1.65;0.95;;;24.60;47.60;;;;;;5012441;28;20100;-75
2022/06/04 10:34:56;;;;;;;1.85;1.13;;;24.80;50.30;;;;;;5012517;28;20033;-75
2022/06/04 10:37:41;;;;;;;2.90;0.90;;;24.90;49.10;;;;;;5012117;28;20033;-78
2022/06/04 10:40:34;;;;;;;1.63;0.97;;;25.00;48.50;;;;;;5012379;28;20026;-78
2022/06/04 10:43:05;;;;;;;1.20;1.10;;;25.20;49.40;;;;;;5012051;28;20109;-77
2022/06/04 10:45:43;;;;;;;2.78;1.17;;;25.50;46.60;;;;;;5012177;28;20037;-77
2022/06/04 10:48:29;;;;;;;2.47;1.10;;;25.90;46.20;;;;;;5013623;28;20040;-78
2022/06/04 10:51:26;;;;;;;2.90;1.30;;;26.20;45.60;;;;;;5011440;28;20176;-77
2022/06/04 10:54:14;;;;;;;2.28;1.58;;;26.40;46.30;;;;;;5012232;28;20048;-77
2022/06/04 10:56:49;;;;;;;2.45;1.10;;;26.50;47.50;;;;;;5011927;28;20390;-75
2022/06/04 10:59:48;;;;;;;2.83;1.13;;;26.40;42.50;;;;;;5012163;28;20489;-79
2022/06/04 11:02:39;;;;;;;2.90;0.90;;;26.20;43.90;;;;;;4979150;28;20030;-78
2022/06/04 11:05:14;;;;;;;1.58;0.68;;;25.90;43.10;;;;;;5011509;28;20038;-78
2022/06/04 11:07:54;;;;;;;1.85;0.80;;;25.90;42.20;;;;;;5011432;28;20022;-79
2022/06/04 11:10:45;;;;;;;1.55;1.10;;;25.90;41.00;;;;;;5011876;28;20430;-76
2022/06/04 11:13:18;;;;;;;2.10;1.10;;;26.00;42.50;;;;;;5011162;28;20026;-76
2022/06/04 11:15:52;;;;;;;1.70;0.80;;;26.30;41.00;;;;;;5011723;28;20108;-76
2022/06/04 11:18:32;;;;;;;1.43;0.73;;;26.10;39.70;;;;;;5011831;28;20104;-75
2022/06/04 11:21:09;;;;;;;1.13;0.75;;;25.80;40.80;;;;;;5011462;28;20268;-75
2022/06/04 11:23:40;;;;;;;1.25;0.80;;;26.00;40.10;;;;;;5013467;28;20032;-75
2022/06/04 11:26:20;;;;;;;1.55;1.15;;;26.00;41.90;;;;;;5015707;28;20152;-75
2022/06/04 11:28:45;;;;;;;2.25;0.70;;;26.40;42.00;;;;;;5015218;28;20018;-73
2022/06/04 11:31:15;;;;;;;1.90;0.75;;;26.50;38.80;;;;;;5015676;28;20049;-75
2022/06/04 11:34:12;;;;;;;2.20;0.90;;;26.20;39.20;;;;;;5015692;28;20223;-73
2022/06/04 11:36:46;;;;;;;2.70;1.23;;;26.10;40.80;;;;;;5015453;28;20022;-74
2022/06/04 11:39:55;;;;;;;1.85;1.17;;;26.40;39.90;;;;;;5015452;28;20064;-74
2022/06/04 11:42:41;;;;;;;5.68;1.85;;;26.20;43.70;;;;;;5014995;28;20506;-73
2022/06/04 11:45:49;;;;;;;4.63;1.80;;;26.10;45.50;;;;;;5015135;28;20030;-73
2022/06/04 11:48:30;;;;;;;1.85;1.40;;;26.30;45.90;;;;;;4989002;28;20037;-73
2022/06/04 11:51:13;;;;;;;5.00;1.60;;;26.60;44.40;;;;;;5015156;28;20068;-74
2022/06/04 11:53:47;;;;;;;3.92;1.85;;;27.10;44.20;;;;;;5015219;28;20025;-73
2022/06/04 11:56:27;;;;;;;4.65;2.03;;;26.80;44.40;;;;;;5015069;28;20133;-74
2022/06/04 11:59:03;;;;;;;3.58;2.50;;;26.70;45.10;;;;;;5015403;28;20113;-74
2022/06/04 12:01:43;;;;;;;3.17;2.28;;;26.60;47.40;;;;;;5015302;28;20057;-74
2022/06/04 12:04:32;;;;;;;4.65;2.78;;;26.40;48.00;;;;;;5014652;28;20044;-73
2022/06/04 12:07:06;;;;;;;2.75;2.08;;;26.40;49.10;;;;;;5014838;28;20058;-73
2022/06/04 12:10:02;;;;;;;2.78;2.25;;;26.60;49.10;;;;;;5014665;28;20068;-73
2022/06/04 12:13:25;;;;;;;3.88;2.25;;;26.60;47.40;;;;;;5015019;28;20486;-73
2022/06/04 12:16:14;;;;;;;3.45;2.28;;;26.70;46.40;;;;;;4952284;28;20038;-74
2022/06/04 12:24:15;;;;;;;3.50;2.55;;;26.70;46.00;;;;;;5014521;28;20506;-74
2022/06/04 12:24:41;;;;;;;5.28;2.53;;;26.40;46.80;;;;;;5015905;28;20060;-74
2022/06/04 12:27:27;;;;;;;4.78;2.75;;;26.70;47.60;;;;;;5014592;28;20391;-74
2022/06/04 12:29:57;;;;;;;2.83;2.60;;;27.00;47.90;;;;;;5014047;28;20076;-74
2022/06/04 12:32:29;;;;;;;5.38;2.92;;;27.30;47.30;;;;;;5014485;28;20080;-73
2022/06/04 12:35:11;;;;;;;3.72;2.80;;;27.70;45.50;;;;;;5015706;28;20025;-74
2022/06/04 12:37:43;;;;;;;4.35;2.22;;;27.50;45.40;;;;;;5013558;28;20065;-75
2022/06/04 12:40:23;;;;;;;3.85;2.70;;;27.60;44.00;;;;;;5014124;28;20030;-74
2022/06/04 12:43:07;;;;;;;6.45;2.58;;;27.60;43.90;;;;;;5013782;28;20451;-74
2022/06/04 12:45:35;;;;;;;4.53;2.35;;;27.10;45.80;;;;;;5013880;28;20366;-74
2022/06/04 12:48:01;;;;;;;2.72;2.53;;;27.20;46.50;;;;;;5014128;28;20030;-75
2022/06/04 12:50:34;;;;;;;5.28;2.15;;;27.30;45.80;;;;;;5014371;28;20026;-76
2022/06/04 12:53:16;;;;;;;5.30;2.47;;;26.80;45.20;;;;;;5014443;28;20478;-74
2022/06/04 12:55:52;;;;;;;3.05;2.70;;;26.60;45.30;;;;;;5013873;28;20453;-75
2022/06/04 12:58:48;;;;;;;3.60;2.63;;;26.80;47.30;;;;;;5013643;28;20041;-74
2022/06/04 13:01:16;;;;;;;6.10;2.70;;;26.70;48.80;;;;;;5014139;28;20030;-74
2022/06/04 13:03:43;;;;;;;3.85;1.98;;;26.80;45.10;;;;;;5014053;28;20049;-74
2022/06/04 13:06:12;;;;;;;4.07;2.13;;;27.00;44.60;;;;;;5014163;28;20554;-74
2022/06/04 13:09:02;;;;;;;2.35;2.00;;;27.10;43.00;;;;;;5013799;28;20022;-74
2022/06/04 13:12:02;;;;;;;3.15;2.13;;;27.20;43.00;;;;;;5013982;28;20498;-74
2022/06/04 13:14:45;;;;;;;3.35;2.35;;;27.60;43.60;;;;;;5013897;28;20422;-73
2022/06/04 13:17:18;;;;;;;4.32;2.70;;;27.80;43.60;;;;;;5013453;28;20037;-74
2022/06/04 13:19:55;;;;;;;4.50;3.03;;;27.70;44.40;;;;;;5013547;28;20475;-74
2022/06/04 13:22:36;;;;;;;2.88;2.30;;;27.70;44.80;;;;;;5013509;28;20414;-75
2022/06/04 13:25:06;;;;;;;4.10;2.78;;;27.70;44.70;;;;;;5012902;28;20026;-75
2022/06/04 13:27:53;;;;;;;3.10;2.50;;;27.60;44.50;;;;;;5013239;28;20478;-76
2022/06/04 13:30:22;;;;;;;3.08;2.78;;;27.60;44.50;;;;;;5012839;28;20372;-75
2022/06/04 13:32:48;;;;;;;2.80;2.60;;;27.10;46.30;;;;;;5013375;28;20048;-74
2022/06/04 13:35:23;;;;;;;3.83;2.58;;;27.00;46.20;;;;;;5013067;28;20071;-74